createdAt,value
2022-12-09T00:02:07.829Z,-0.51
2022-12-09T00:05:11.181Z,-0.51
2022-12-09T00:08:14.399Z,-0.56
2022-12-09T00:11:20.419Z,-0.66
2022-12-09T00:14:24.526Z,-0.66
2022-12-09T00:17:27.686Z,-0.68
2022-12-09T00:20:30.828Z,-0.73
2022-12-09T00:23:36.823Z,-0.83
2022-12-09T00:26:41.997Z,-0.81
2022-12-09T00:29:45.076Z,-0.80
2022-12-09T00:32:48.824Z,-0.82
2022-12-09T00:35:52.011Z,-0.87
2022-12-09T00:38:56.342Z,-0.90
2022-12-09T00:42:03.876Z,-0.90
2022-12-09T00:45:08.534Z,-0.98
2022-12-09T00:48:11.530Z,-1.00
2022-12-09T00:51:18.672Z,-0.97
2022-12-09T00:54:21.709Z,-1.02
2022-12-09T00:57:26.315Z,-1.03
2022-12-09T01:00:29.620Z,-1.04
2022-12-09T01:03:34.345Z,-1.06
2022-12-09T01:06:37.810Z,-1.14
2022-12-09T01:09:40.893Z,-1.21
2022-12-09T01:12:45.505Z,-1.25
2022-12-09T01:15:48.695Z,-1.23
2022-12-09T01:18:53.444Z,-1.28
2022-12-09T01:21:56.570Z,-1.31
2022-12-09T01:25:00.807Z,-1.33
2022-12-09T01:28:05.750Z,-1.37
2022-12-09T01:31:10.266Z,-1.36
2022-12-09T01:34:13.424Z,-1.36
2022-12-09T01:37:18.299Z,-1.37
2022-12-09T01:40:21.330Z,-1.37
2022-12-09T01:43:26.215Z,-1.41
2022-12-09T01:46:29.681Z,-1.49
2022-12-09T01:49:36.768Z,-1.57
2022-12-09T01:52:40.150Z,-1.63
2022-12-09T01:55:43.898Z,-1.67
2022-12-09T01:58:49.132Z,-1.68
2022-12-09T02:01:58.723Z,-1.68
2022-12-09T02:05:02.845Z,-1.67
2022-12-09T02:08:12.602Z,-1.75
2022-12-09T02:11:41.403Z,-1.70
2022-12-09T02:14:54.355Z,-1.73
2022-12-09T02:18:03.144Z,-1.72
2022-12-09T02:21:14.365Z,-1.74
2022-12-09T02:24:25.191Z,-1.78
2022-12-09T02:27:35.456Z,-1.78
2022-12-09T02:30:49.760Z,-1.72
2022-12-09T02:34:09.697Z,-1.66
2022-12-09T02:37:20.867Z,-1.60
2022-12-09T02:40:33.037Z,-1.54
2022-12-09T02:43:45.004Z,-1.61
2022-12-09T02:46:53.494Z,-1.51
2022-12-09T02:50:03.795Z,-1.49
2022-12-09T02:53:12.414Z,-1.45
2022-12-09T02:56:16.409Z,-1.40
2022-12-09T02:59:19.646Z,-1.39
2022-12-09T03:02:28.463Z,-1.40
2022-12-09T03:05:47.422Z,-1.29
2022-12-09T03:08:59.203Z,-1.22
2022-12-09T03:12:08.402Z,-1.21
2022-12-09T03:15:15.009Z,-1.15
2022-12-09T03:18:21.748Z,-1.15
2022-12-09T03:21:29.055Z,-1.13
2022-12-09T03:24:38.042Z,-1.19
2022-12-09T03:27:51.048Z,-1.19
2022-12-09T03:30:56.264Z,-1.21
2022-12-09T03:34:05.135Z,-1.22
2022-12-09T03:37:11.738Z,-1.09
2022-12-09T03:40:20.201Z,-1.11
2022-12-09T03:43:27.612Z,-1.16
2022-12-09T03:46:31.673Z,-1.12
2022-12-09T03:49:35.712Z,-1.00
2022-12-09T03:52:45.292Z,-1.03
2022-12-09T03:55:54.352Z,-0.97
2022-12-09T03:59:00.125Z,-0.99
2022-12-09T04:02:06.827Z,-0.98
2022-12-09T04:05:10.768Z,-1.02
2022-12-09T04:08:15.327Z,-1.07
2022-12-09T04:11:18.487Z,-0.98
2022-12-09T04:14:21.763Z,-0.98
2022-12-09T04:17:24.926Z,-1.01
2022-12-09T04:20:28.074Z,-0.97
2022-12-09T04:23:35.578Z,-0.88
2022-12-09T04:26:41.336Z,-0.89
2022-12-09T04:29:44.341Z,-0.86
2022-12-09T04:32:47.661Z,-0.87
2022-12-09T04:35:50.964Z,-0.80
2022-12-09T04:38:55.544Z,-0.80
2022-12-09T04:41:58.547Z,-0.80
2022-12-09T04:45:02.297Z,-0.77
2022-12-09T04:48:06.040Z,-0.76
2022-12-09T04:51:10.536Z,-0.77
2022-12-09T04:54:16.751Z,-0.75
2022-12-09T04:57:20.351Z,-0.77
2022-12-09T05:00:24.175Z,-0.76
2022-12-09T05:03:27.455Z,-0.73
2022-12-09T05:06:30.607Z,-0.71
2022-12-09T05:09:35.337Z,-0.68
2022-12-09T05:12:38.837Z,-0.76
2022-12-09T05:15:42.240Z,-0.71
2022-12-09T05:18:47.372Z,-0.76
2022-12-09T05:21:50.839Z,-0.74
2022-12-09T05:24:55.394Z,-0.74
2022-12-09T05:27:58.472Z,-0.75
2022-12-09T05:31:04.260Z,-0.76
2022-12-09T05:34:08.480Z,-0.80
2022-12-09T05:37:15.423Z,-0.83
2022-12-09T05:40:20.564Z,-0.86
2022-12-09T05:43:24.887Z,-0.86
2022-12-09T05:46:32.195Z,-0.89
2022-12-09T05:49:39.000Z,-0.96
2022-12-09T05:52:43.287Z,-0.97
2022-12-09T05:55:48.052Z,-0.99
2022-12-09T05:58:55.472Z,-0.99
2022-12-09T06:01:59.545Z,-1.00
2022-12-09T06:05:07.120Z,-0.99
2022-12-09T06:08:10.827Z,-1.00
2022-12-09T06:11:18.975Z,-0.98
2022-12-09T06:14:24.176Z,-0.97
2022-12-09T06:17:27.704Z,-0.97
2022-12-09T06:20:31.308Z,-1.01
2022-12-09T06:23:36.696Z,-0.97
2022-12-09T06:26:41.280Z,-0.96
2022-12-09T06:29:44.579Z,-0.96
2022-12-09T06:33:13.020Z,-0.91
2022-12-09T06:36:31.477Z,-0.96
2022-12-09T06:39:35.383Z,-0.96
2022-12-09T06:42:40.166Z,-0.97
2022-12-09T06:45:43.462Z,-0.93
2022-12-09T06:48:48.089Z,-0.95
2022-12-09T06:51:52.007Z,-0.95
2022-12-09T06:54:55.123Z,-0.91
2022-12-09T06:58:01.108Z,-0.89
2022-12-09T07:01:08.840Z,-0.92
2022-12-09T07:04:15.024Z,-0.97
2022-12-09T07:07:18.621Z,-0.95
2022-12-09T07:10:22.886Z,-0.94
2022-12-09T07:13:27.616Z,-0.95
2022-12-09T07:16:31.243Z,-0.92
2022-12-09T07:19:35.277Z,-0.93
2022-12-09T07:22:41.967Z,-0.96
2022-12-09T07:25:45.306Z,-0.97
2022-12-09T07:28:50.476Z,-0.96
2022-12-09T07:31:54.262Z,-0.99
2022-12-09T07:34:57.916Z,-0.97
2022-12-09T07:38:01.122Z,-0.91
2022-12-09T07:41:10.139Z,-0.89
2022-12-09T07:44:15.010Z,-0.81
2022-12-09T07:47:18.774Z,-0.78
2022-12-09T07:50:22.187Z,-0.76
2022-12-09T07:53:26.051Z,-0.75
2022-12-09T07:56:30.189Z,-0.70
2022-12-09T07:59:34.926Z,-0.70
2022-12-09T08:02:38.525Z,-0.70
2022-12-09T08:05:48.790Z,-0.72
2022-12-09T08:08:52.941Z,-0.71
2022-12-09T08:11:56.606Z,-0.70
2022-12-09T08:15:01.544Z,-0.70
2022-12-09T08:18:05.709Z,-0.69
2022-12-09T08:21:12.586Z,-0.78
2022-12-09T08:24:16.511Z,-0.76
2022-12-09T08:27:19.952Z,-0.75
2022-12-09T08:30:28.350Z,-0.70
2022-12-09T08:33:32.817Z,-0.65
2022-12-09T08:36:36.955Z,-0.69
2022-12-09T08:39:40.567Z,-0.68
2022-12-09T08:42:43.872Z,-0.62
2022-12-09T08:45:48.599Z,-0.55
2022-12-09T08:48:52.022Z,-0.59
2022-12-09T08:51:55.473Z,-0.61
2022-12-09T08:54:58.579Z,-0.62
2022-12-09T08:58:04.404Z,-0.60
2022-12-09T09:01:17.922Z,-0.56
2022-12-09T09:04:22.997Z,-0.56
2022-12-09T09:07:26.380Z,-0.55
2022-12-09T09:10:31.044Z,-0.46
2022-12-09T09:13:35.392Z,-0.41
2022-12-09T09:16:43.124Z,-0.42
2022-12-09T09:19:46.468Z,-0.40
2022-12-09T09:22:50.050Z,-0.49
2022-12-09T09:25:53.539Z,-0.49
2022-12-09T09:28:59.299Z,-0.46
2022-12-09T09:32:03.982Z,-0.39
2022-12-09T09:35:07.946Z,-0.44
2022-12-09T09:38:11.369Z,-0.40
2022-12-09T09:41:26.445Z,-0.39
2022-12-09T09:44:34.692Z,-0.35
2022-12-09T09:47:44.781Z,-0.35
2022-12-09T09:50:55.068Z,-0.36
2022-12-09T09:54:01.265Z,-0.39
2022-12-09T09:57:16.559Z,-0.37
2022-12-09T10:00:42.461Z,-0.36
2022-12-09T10:03:58.982Z,-0.35
2022-12-09T10:07:13.332Z,-0.37
2022-12-09T10:10:32.357Z,-0.28
2022-12-09T10:13:53.590Z,-0.17
2022-12-09T10:17:10.866Z,-0.10
2022-12-09T10:20:20.304Z,-0.08
2022-12-09T10:23:24.430Z,-0.26
2022-12-09T10:26:30.606Z,-0.09
2022-12-09T10:29:49.946Z,0.03
2022-12-09T10:32:57.109Z,0.04
2022-12-09T10:36:02.163Z,0.02
2022-12-09T10:39:08.551Z,0.08
2022-12-09T10:42:34.856Z,0.09
2022-12-09T10:46:16.878Z,0.08
2022-12-09T10:49:20.898Z,0.03
2022-12-09T10:52:29.054Z,-0.03
2022-12-09T10:55:37.337Z,0.09
2022-12-09T10:58:40.777Z,-0.03
2022-12-09T11:01:51.756Z,-0.11
2022-12-09T11:04:55.952Z,-0.23
2022-12-09T11:08:01.024Z,-0.15
2022-12-09T11:11:06.348Z,-0.08
2022-12-09T11:14:23.430Z,-0.19
2022-12-09T11:17:30.746Z,-0.23
2022-12-09T11:20:36.639Z,-0.12
2022-12-09T11:24:02.534Z,-0.03
2022-12-09T11:27:26.826Z,-0.28
2022-12-09T11:30:33.400Z,-0.18
2022-12-09T11:33:39.309Z,-0.07
2022-12-09T11:36:48.234Z,-0.02
2022-12-09T11:39:52.823Z,-0.12
2022-12-09T11:42:58.251Z,-0.17
2022-12-09T11:46:02.121Z,-0.22
2022-12-09T11:49:13.896Z,-0.15
2022-12-09T11:52:27.634Z,-0.24
2022-12-09T11:55:33.589Z,-0.33
2022-12-09T11:58:43.312Z,-0.31
2022-12-09T12:01:53.106Z,-0.33
2022-12-09T12:05:03.826Z,-0.27
2022-12-09T12:08:17.205Z,-0.27
2022-12-09T12:11:28.881Z,-0.30
2022-12-09T12:14:32.244Z,-0.40
2022-12-09T12:17:44.080Z,-0.49
2022-12-09T12:21:18.561Z,-0.64
2022-12-09T12:24:41.671Z,-0.71
2022-12-09T12:28:18.959Z,-0.87
2022-12-09T12:31:44.270Z,-0.62
2022-12-09T12:35:03.640Z,-0.46
2022-12-09T12:38:23.146Z,-0.44
2022-12-09T12:41:38.471Z,-0.49
2022-12-09T12:45:19.287Z,-0.50
2022-12-09T12:48:32.054Z,-0.49
2022-12-09T12:51:54.260Z,-0.54
2022-12-09T12:55:12.123Z,-0.62
2022-12-09T12:58:37.265Z,-0.72
2022-12-09T13:01:53.441Z,-0.67
2022-12-09T13:05:03.825Z,-0.63
2022-12-09T13:08:13.975Z,-0.74
2022-12-09T13:11:22.692Z,-0.75
2022-12-09T13:14:35.200Z,-0.76
2022-12-09T13:17:40.705Z,-0.68
2022-12-09T13:20:49.038Z,-0.51
2022-12-09T13:24:04.291Z,-0.66
2022-12-09T13:27:16.250Z,-0.59
2022-12-09T13:30:23.036Z,-0.77
2022-12-09T13:33:48.824Z,-0.77
2022-12-09T13:36:52.066Z,-0.78
2022-12-09T13:39:58.171Z,-0.64
2022-12-09T13:43:19.228Z,-0.80
2022-12-09T13:46:23.984Z,-0.81
2022-12-09T13:49:28.508Z,-0.84
2022-12-09T13:52:46.130Z,-0.77
2022-12-09T13:55:51.621Z,-0.88
2022-12-09T13:59:40.110Z,-0.92
2022-12-09T14:02:52.960Z,-1.02
2022-12-09T14:06:00.227Z,-0.95
2022-12-09T14:09:23.587Z,-0.88
2022-12-09T14:13:07.270Z,-1.06
2022-12-09T14:16:19.276Z,-1.13
2022-12-09T14:19:53.663Z,-1.09
2022-12-09T14:23:19.324Z,-1.10
2022-12-09T14:26:35.716Z,-1.11
2022-12-09T14:29:51.453Z,-1.01
2022-12-09T14:32:57.059Z,-1.13
2022-12-09T14:36:05.992Z,-1.04
2022-12-09T14:39:24.752Z,-1.02
2022-12-09T14:42:38.281Z,-1.18
2022-12-09T14:45:50.294Z,-1.24
2022-12-09T14:48:58.505Z,-1.13
2022-12-09T14:52:06.082Z,-1.01
2022-12-09T14:55:17.480Z,-1.02
2022-12-09T14:58:24.358Z,-1.01
2022-12-09T15:01:27.600Z,-0.96
2022-12-09T15:04:33.745Z,-1.14
2022-12-09T15:07:36.894Z,-1.15
2022-12-09T15:10:41.835Z,-1.26
2022-12-09T15:13:48.350Z,-1.22
2022-12-09T15:16:53.840Z,-1.19
2022-12-09T15:20:12.091Z,-1.19
2022-12-09T15:23:20.822Z,-1.21
2022-12-09T15:26:28.766Z,-1.09
2022-12-09T15:29:34.691Z,-1.19
2022-12-09T15:32:40.296Z,-1.39
2022-12-09T15:35:50.847Z,-1.44
2022-12-09T15:39:02.109Z,-1.33
2022-12-09T15:42:16.881Z,-1.30
2022-12-09T15:45:24.611Z,-1.32
2022-12-09T15:48:33.704Z,-1.30
2022-12-09T15:51:38.998Z,-1.30
2022-12-09T15:54:45.328Z,-1.40
2022-12-09T15:57:58.328Z,-1.41
2022-12-09T16:01:02.939Z,-1.49
2022-12-09T16:04:07.635Z,-1.43
2022-12-09T16:07:13.968Z,-1.43
2022-12-09T16:10:19.134Z,-1.47
2022-12-09T16:13:23.776Z,-1.45
2022-12-09T16:16:31.350Z,-1.33
2022-12-09T16:19:38.192Z,-1.45
2022-12-09T16:22:42.853Z,-1.56
2022-12-09T16:25:49.185Z,-1.53
2022-12-09T16:28:59.711Z,-1.49
2022-12-09T16:32:24.432Z,-1.62
2022-12-09T16:35:30.416Z,-1.61
2022-12-09T16:38:35.822Z,-1.49
2022-12-09T16:42:00.656Z,-1.44
2022-12-09T16:45:25.430Z,-1.33
2022-12-09T16:48:31.481Z,-1.30
2022-12-09T16:51:34.719Z,-1.27
2022-12-09T16:54:38.803Z,-1.34
2022-12-09T16:57:41.803Z,-1.28
2022-12-09T17:00:46.850Z,-1.45
2022-12-09T17:03:53.877Z,-1.46
2022-12-09T17:06:57.303Z,-1.45
2022-12-09T17:10:00.258Z,-1.46
2022-12-09T17:13:04.117Z,-1.55
2022-12-09T17:16:11.793Z,-1.55
2022-12-09T17:19:15.009Z,-1.50
2022-12-09T17:22:18.988Z,-1.43
2022-12-09T17:25:21.940Z,-1.40
2022-12-09T17:28:29.913Z,-1.52
2022-12-09T17:31:34.624Z,-1.56
2022-12-09T17:34:37.826Z,-1.64
2022-12-09T17:37:40.880Z,-1.67
2022-12-09T17:40:43.917Z,-1.61
2022-12-09T17:43:47.290Z,-1.73
2022-12-09T17:46:52.342Z,-1.73
2022-12-09T17:49:55.417Z,-1.68
2022-12-09T17:52:58.927Z,-1.79
2022-12-09T17:56:07.414Z,-1.79
2022-12-09T17:59:14.124Z,-1.85
2022-12-09T18:02:18.426Z,-1.83
2022-12-09T18:05:21.490Z,-1.82
2022-12-09T18:08:24.558Z,-1.74
2022-12-09T18:11:28.242Z,-1.78
2022-12-09T18:14:31.354Z,-1.81
2022-12-09T18:17:36.134Z,-1.93
2022-12-09T18:20:39.699Z,-1.98
2022-12-09T18:23:42.837Z,-2.00
2022-12-09T18:26:46.059Z,-2.03
2022-12-09T18:29:49.165Z,-1.94
2022-12-09T18:32:53.519Z,-1.87
2022-12-09T18:35:59.289Z,-1.83
2022-12-09T18:39:02.387Z,-1.97
2022-12-09T18:42:05.748Z,-1.90
2022-12-09T18:45:12.491Z,-1.84
2022-12-09T18:48:19.163Z,-1.82
2022-12-09T18:51:22.946Z,-1.88
2022-12-09T18:54:32.994Z,-1.89
2022-12-09T18:57:36.019Z,-1.84
2022-12-09T19:00:39.475Z,-1.90
2022-12-09T19:03:44.192Z,-1.86
2022-12-09T19:06:50.336Z,-1.87
2022-12-09T19:09:53.397Z,-1.83
2022-12-09T19:12:57.110Z,-1.83
2022-12-09T19:16:04.798Z,-1.71
2022-12-09T19:19:11.174Z,-1.73
2022-12-09T19:22:14.611Z,-1.78
2022-12-09T19:25:23.133Z,-1.75
2022-12-09T19:28:26.297Z,-1.69
2022-12-09T19:31:40.930Z,-1.69
2022-12-09T19:34:55.384Z,-1.70
2022-12-09T19:38:01.653Z,-1.68
2022-12-09T19:41:09.400Z,-1.73
2022-12-09T19:44:37.292Z,-1.71
2022-12-09T19:47:41.243Z,-1.72
2022-12-09T19:50:47.772Z,-1.65
2022-12-09T19:53:55.158Z,-1.69
2022-12-09T19:57:00.075Z,-1.78
2022-12-09T20:00:03.171Z,-1.73
2022-12-09T20:03:08.332Z,-1.79
2022-12-09T20:06:16.047Z,-1.82
2022-12-09T20:09:23.952Z,-1.73
2022-12-09T20:12:27.554Z,-1.77
2022-12-09T20:15:30.610Z,-1.66
2022-12-09T20:18:34.189Z,-1.64
2022-12-09T20:21:39.627Z,-1.60
2022-12-09T20:24:43.255Z,-1.53
2022-12-09T20:27:46.320Z,-1.46
2022-12-09T20:30:51.588Z,-1.48
2022-12-09T20:33:56.062Z,-1.54
2022-12-09T20:37:00.435Z,-1.54
2022-12-09T20:40:06.615Z,-1.57
2022-12-09T20:43:12.195Z,-1.54
2022-12-09T20:46:17.544Z,-1.52
2022-12-09T20:49:26.195Z,-1.45
2022-12-09T20:52:30.614Z,-1.42
2022-12-09T20:55:35.931Z,-1.36
2022-12-09T20:58:41.224Z,-1.33
2022-12-09T21:01:47.031Z,-1.27
2022-12-09T21:04:51.136Z,-1.27
2022-12-09T21:07:56.374Z,-1.27
2022-12-09T21:11:07.719Z,-1.25
2022-12-09T21:14:12.435Z,-1.25
2022-12-09T21:17:20.095Z,-1.22
2022-12-09T21:20:23.497Z,-1.27
2022-12-09T21:23:36.083Z,-1.21
2022-12-09T21:26:39.203Z,-1.25
2022-12-09T21:29:42.563Z,-1.21
2022-12-09T21:32:46.582Z,-1.18
2022-12-09T21:35:51.445Z,-1.22
2022-12-09T21:38:57.292Z,-1.26
2022-12-09T21:42:00.614Z,-1.19
2022-12-09T21:45:04.595Z,-1.15
2022-12-09T21:48:09.597Z,-1.15
2022-12-09T21:51:14.174Z,-1.23
2022-12-09T21:54:18.655Z,-1.30
2022-12-09T21:57:22.024Z,-1.23
2022-12-09T22:00:25.152Z,-1.23
2022-12-09T22:03:28.214Z,-1.27
2022-12-09T22:06:31.546Z,-1.33
2022-12-09T22:09:35.832Z,-1.26
2022-12-09T22:12:38.931Z,-1.29
2022-12-09T22:15:41.942Z,-1.32
2022-12-09T22:18:46.509Z,-1.38
2022-12-09T22:21:50.267Z,-1.37
2022-12-09T22:24:54.621Z,-1.41
2022-12-09T22:27:58.076Z,-1.43
2022-12-09T22:31:01.933Z,-1.54
2022-12-09T22:34:07.720Z,-1.49
2022-12-09T22:37:41.894Z,-1.45
2022-12-09T22:40:36.475Z,-1.43
2022-12-09T22:43:40.374Z,-1.43
2022-12-09T22:46:43.770Z,-1.61
2022-12-09T22:49:47.012Z,-1.62
2022-12-09T22:52:49.958Z,-1.66
2022-12-09T22:55:54.258Z,-1.62
2022-12-09T22:58:57.911Z,-1.67
2022-12-09T23:02:01.181Z,-1.73
2022-12-09T23:05:04.687Z,-1.67
2022-12-09T23:08:08.423Z,-1.60
2022-12-09T23:11:15.994Z,-1.75
2022-12-09T23:14:19.830Z,-1.75
2022-12-09T23:17:22.865Z,-1.67
2022-12-09T23:20:26.135Z,-1.60
2022-12-09T23:23:29.231Z,-1.57
2022-12-09T23:26:36.817Z,-1.58
2022-12-09T23:29:40.110Z,-1.66
2022-12-09T23:32:43.517Z,-1.62
2022-12-09T23:35:46.460Z,-1.62
2022-12-09T23:38:50.109Z,-1.73
2022-12-09T23:41:54.454Z,-1.73
2022-12-09T23:44:59.855Z,-1.84
2022-12-09T23:48:02.846Z,-1.91
2022-12-09T23:51:12.330Z,-1.80
2022-12-09T23:54:19.307Z,-1.81
2022-12-09T23:57:24.314Z,-1.85
